sensor_id;sensor_type;location;lat;lon;timestamp;P1;P2;P0
77365;PMS5003;66430;50.182;11.704;2024-02-16T00:01:18;7;6;
77365;PMS5003;66430;50.182;11.704;2024-02-16T00:03:44;7;6;
77365;PMS5003;66430;50.182;11.704;2024-02-16T00:06:09;8;7;
77365;PMS5003;66430;50.182;11.704;2024-02-16T00:08:35;6;6;
77365;PMS5003;66430;50.182;11.704;2024-02-16T00:11:00;7;6;
77365;PMS5003;66430;50.182;11.704;2024-02-16T00:13:25;8;6;
77365;PMS5003;66430;50.182;11.704;2024-02-16T00:15:51;9;8;
77365;PMS5003;66430;50.182;11.704;2024-02-16T00:18:17;6;6;
77365;PMS5003;66430;50.182;11.704;2024-02-16T00:20:42;6;6;
77365;PMS5003;66430;50.182;11.704;2024-02-16T00:23:08;7;7;
77365;PMS5003;66430;50.182;11.704;2024-02-16T00:25:33;5;5;
77365;PMS5003;66430;50.182;11.704;2024-02-16T00:27:59;6;6;
77365;PMS5003;66430;50.182;11.704;2024-02-16T00:30:24;8;6;
77365;PMS5003;66430;50.182;11.704;2024-02-16T00:32:49;6;6;
77365;PMS5003;66430;50.182;11.704;2024-02-16T00:35:15;6;6;
77365;PMS5003;66430;50.182;11.704;2024-02-16T00:37:40;7;6;
77365;PMS5003;66430;50.182;11.704;2024-02-16T00:40:06;6;6;
77365;PMS5003;66430;50.182;11.704;2024-02-16T00:42:31;6;6;
77365;PMS5003;66430;50.182;11.704;2024-02-16T00:44:56;6;6;
77365;PMS5003;66430;50.182;11.704;2024-02-16T00:47:22;6;6;
77365;PMS5003;66430;50.182;11.704;2024-02-16T00:49:47;6;6;
77365;PMS5003;66430;50.182;11.704;2024-02-16T00:52:13;7;5;
77365;PMS5003;66430;50.182;11.704;2024-02-16T00:54:38;5;5;
77365;PMS5003;66430;50.182;11.704;2024-02-16T00:57:04;6;6;
77365;PMS5003;66430;50.182;11.704;2024-02-16T00:59:29;6;5;
77365;PMS5003;66430;50.182;11.704;2024-02-16T01:01:54;6;6;
77365;PMS5003;66430;50.182;11.704;2024-02-16T01:04:20;5;5;
77365;PMS5003;66430;50.182;11.704;2024-02-16T01:06:45;5;4;
77365;PMS5003;66430;50.182;11.704;2024-02-16T01:09:11;5;5;
77365;PMS5003;66430;50.182;11.704;2024-02-16T01:11:36;5;5;
77365;PMS5003;66430;50.182;11.704;2024-02-16T01:14:02;6;5;
77365;PMS5003;66430;50.182;11.704;2024-02-16T01:16:28;5;5;
77365;PMS5003;66430;50.182;11.704;2024-02-16T01:18:53;7;6;
77365;PMS5003;66430;50.182;11.704;2024-02-16T01:21:18;7;6;
77365;PMS5003;66430;50.182;11.704;2024-02-16T01:23:44;5;5;
77365;PMS5003;66430;50.182;11.704;2024-02-16T01:26:09;3;3;
77365;PMS5003;66430;50.182;11.704;2024-02-16T01:28:35;4;4;
77365;PMS5003;66430;50.182;11.704;2024-02-16T01:31:00;7;7;
77365;PMS5003;66430;50.182;11.704;2024-02-16T01:33:25;6;5;
77365;PMS5003;66430;50.182;11.704;2024-02-16T01:35:51;6;6;
77365;PMS5003;66430;50.182;11.704;2024-02-16T01:38:16;6;6;
77365;PMS5003;66430;50.182;11.704;2024-02-16T01:40:42;5;5;
77365;PMS5003;66430;50.182;11.704;2024-02-16T01:43:07;7;6;
77365;PMS5003;66430;50.182;11.704;2024-02-16T01:45:33;6;6;
77365;PMS5003;66430;50.182;11.704;2024-02-16T01:47:58;5;5;
77365;PMS5003;66430;50.182;11.704;2024-02-16T01:50:24;5;5;
77365;PMS5003;66430;50.182;11.704;2024-02-16T01:52:49;5;5;
77365;PMS5003;66430;50.182;11.704;2024-02-16T01:55:15;6;6;
77365;PMS5003;66430;50.182;11.704;2024-02-16T01:57:41;8;6;
77365;PMS5003;66430;50.182;11.704;2024-02-16T02:00:06;7;7;
77365;PMS5003;66430;50.182;11.704;2024-02-16T02:02:31;5;5;
77365;PMS5003;66430;50.182;11.704;2024-02-16T02:04:56;7;6;
77365;PMS5003;66430;50.182;11.704;2024-02-16T02:07:24;7;5;
77365;PMS5003;66430;50.182;11.704;2024-02-16T02:09:48;4;4;
77365;PMS5003;66430;50.182;11.704;2024-02-16T02:12:13;6;6;
77365;PMS5003;66430;50.182;11.704;2024-02-16T02:14:38;7;6;
77365;PMS5003;66430;50.182;11.704;2024-02-16T02:17:03;5;4;
77365;PMS5003;66430;50.182;11.704;2024-02-16T02:19:29;5;5;
77365;PMS5003;66430;50.182;11.704;2024-02-16T02:21:54;7;6;
77365;PMS5003;66430;50.182;11.704;2024-02-16T02:24:20;5;5;
77365;PMS5003;66430;50.182;11.704;2024-02-16T02:26:46;7;6;
77365;PMS5003;66430;50.182;11.704;2024-02-16T02:29:11;6;4;
77365;PMS5003;66430;50.182;11.704;2024-02-16T02:31:36;5;5;
77365;PMS5003;66430;50.182;11.704;2024-02-16T02:34:02;5;5;
77365;PMS5003;66430;50.182;11.704;2024-02-16T02:36:27;3;3;
77365;PMS5003;66430;50.182;11.704;2024-02-16T02:38:53;6;5;
77365;PMS5003;66430;50.182;11.704;2024-02-16T02:41:18;4;4;
77365;PMS5003;66430;50.182;11.704;2024-02-16T02:43:44;5;3;
77365;PMS5003;66430;50.182;11.704;2024-02-16T02:46:09;3;3;
77365;PMS5003;66430;50.182;11.704;2024-02-16T02:48:35;6;5;
77365;PMS5003;66430;50.182;11.704;2024-02-16T02:51:00;5;4;
77365;PMS5003;66430;50.182;11.704;2024-02-16T02:53:26;3;3;
77365;PMS5003;66430;50.182;11.704;2024-02-16T02:55:51;5;5;
77365;PMS5003;66430;50.182;11.704;2024-02-16T02:58:16;5;5;
77365;PMS5003;66430;50.182;11.704;2024-02-16T03:00:41;5;5;
77365;PMS5003;66430;50.182;11.704;2024-02-16T03:03:07;6;5;
77365;PMS5003;66430;50.182;11.704;2024-02-16T03:05:32;6;6;
77365;PMS5003;66430;50.182;11.704;2024-02-16T03:07:58;7;7;
77365;PMS5003;66430;50.182;11.704;2024-02-16T03:10:25;6;5;
77365;PMS5003;66430;50.182;11.704;2024-02-16T03:12:49;7;7;
77365;PMS5003;66430;50.182;11.704;2024-02-16T03:15:14;6;5;
77365;PMS5003;66430;50.182;11.704;2024-02-16T03:17:40;5;5;
77365;PMS5003;66430;50.182;11.704;2024-02-16T03:20:06;6;6;
77365;PMS5003;66430;50.182;11.704;2024-02-16T03:22:31;6;6;
77365;PMS5003;66430;50.182;11.704;2024-02-16T03:24:57;8;5;
77365;PMS5003;66430;50.182;11.704;2024-02-16T03:27:22;6;6;
77365;PMS5003;66430;50.182;11.704;2024-02-16T03:29:47;7;6;
77365;PMS5003;66430;50.182;11.704;2024-02-16T03:32:12;6;6;
77365;PMS5003;66430;50.182;11.704;2024-02-16T03:34:38;8;6;
77365;PMS5003;66430;50.182;11.704;2024-02-16T03:37:04;8;6;
77365;PMS5003;66430;50.182;11.704;2024-02-16T03:39:29;5;5;
77365;PMS5003;66430;50.182;11.704;2024-02-16T03:41:54;4;4;
77365;PMS5003;66430;50.182;11.704;2024-02-16T03:44:20;5;5;
77365;PMS5003;66430;50.182;11.704;2024-02-16T03:46:45;5;5;
77365;PMS5003;66430;50.182;11.704;2024-02-16T03:49:11;4;4;
77365;PMS5003;66430;50.182;11.704;2024-02-16T03:51:36;7;4;
77365;PMS5003;66430;50.182;11.704;2024-02-16T03:54:01;7;5;
77365;PMS5003;66430;50.182;11.704;2024-02-16T03:56:27;3;3;
77365;PMS5003;66430;50.182;11.704;2024-02-16T03:58:52;4;4;
77365;PMS5003;66430;50.182;11.704;2024-02-16T04:01:18;6;6;
77365;PMS5003;66430;50.182;11.704;2024-02-16T04:03:43;6;5;
77365;PMS5003;66430;50.182;11.704;2024-02-16T04:06:09;6;5;
77365;PMS5003;66430;50.182;11.704;2024-02-16T04:08:34;6;6;
77365;PMS5003;66430;50.182;11.704;2024-02-16T04:11:00;4;4;
77365;PMS5003;66430;50.182;11.704;2024-02-16T04:13:25;7;5;
77365;PMS5003;66430;50.182;11.704;2024-02-16T04:15:51;7;5;
77365;PMS5003;66430;50.182;11.704;2024-02-16T04:18:18;7;6;
77365;PMS5003;66430;50.182;11.704;2024-02-16T04:20:42;9;9;
77365;PMS5003;66430;50.182;11.704;2024-02-16T04:23:07;8;7;
77365;PMS5003;66430;50.182;11.704;2024-02-16T04:25:34;6;6;
77365;PMS5003;66430;50.182;11.704;2024-02-16T04:27:58;7;7;
77365;PMS5003;66430;50.182;11.704;2024-02-16T04:30:23;7;6;
77365;PMS5003;66430;50.182;11.704;2024-02-16T04:32:49;7;7;
77365;PMS5003;66430;50.182;11.704;2024-02-16T04:35:14;6;6;
77365;PMS5003;66430;50.182;11.704;2024-02-16T04:37:40;8;7;
77365;PMS5003;66430;50.182;11.704;2024-02-16T04:40:05;7;7;
77365;PMS5003;66430;50.182;11.704;2024-02-16T04:42:30;6;6;
77365;PMS5003;66430;50.182;11.704;2024-02-16T04:44:55;8;7;
77365;PMS5003;66430;50.182;11.704;2024-02-16T04:47:21;7;7;
77365;PMS5003;66430;50.182;11.704;2024-02-16T04:49:47;7;7;
77365;PMS5003;66430;50.182;11.704;2024-02-16T04:52:12;7;6;
77365;PMS5003;66430;50.182;11.704;2024-02-16T04:54:37;8;8;
77365;PMS5003;66430;50.182;11.704;2024-02-16T04:57:03;8;8;
77365;PMS5003;66430;50.182;11.704;2024-02-16T04:59:28;8;8;
77365;PMS5003;66430;50.182;11.704;2024-02-16T05:01:54;10;8;
77365;PMS5003;66430;50.182;11.704;2024-02-16T05:04:19;8;7;
77365;PMS5003;66430;50.182;11.704;2024-02-16T05:06:45;7;7;
77365;PMS5003;66430;50.182;11.704;2024-02-16T05:09:09;10;10;
77365;PMS5003;66430;50.182;11.704;2024-02-16T05:11:35;10;10;
77365;PMS5003;66430;50.182;11.704;2024-02-16T05:14:01;8;8;
77365;PMS5003;66430;50.182;11.704;2024-02-16T05:16:26;8;8;
77365;PMS5003;66430;50.182;11.704;2024-02-16T05:18:51;7;7;
77365;PMS5003;66430;50.182;11.704;2024-02-16T05:21:17;5;5;
77365;PMS5003;66430;50.182;11.704;2024-02-16T05:26:08;5;5;
77365;PMS5003;66430;50.182;11.704;2024-02-16T05:28:34;7;6;
77365;PMS5003;66430;50.182;11.704;2024-02-16T05:31:00;8;7;
77365;PMS5003;66430;50.182;11.704;2024-02-16T05:33:24;8;8;
77365;PMS5003;66430;50.182;11.704;2024-02-16T05:35:50;8;7;
77365;PMS5003;66430;50.182;11.704;2024-02-16T05:38:20;9;6;
77365;PMS5003;66430;50.182;11.704;2024-02-16T05:40:40;12;12;
77365;PMS5003;66430;50.182;11.704;2024-02-16T05:43:06;9;9;
77365;PMS5003;66430;50.182;11.704;2024-02-16T05:45:31;8;8;
77365;PMS5003;66430;50.182;11.704;2024-02-16T05:47:57;11;10;
77365;PMS5003;66430;50.182;11.704;2024-02-16T05:50:22;7;7;
77365;PMS5003;66430;50.182;11.704;2024-02-16T05:52:48;9;6;
77365;PMS5003;66430;50.182;11.704;2024-02-16T05:55:13;9;9;
77365;PMS5003;66430;50.182;11.704;2024-02-16T05:57:39;7;7;
77365;PMS5003;66430;50.182;11.704;2024-02-16T06:00:06;7;7;
77365;PMS5003;66430;50.182;11.704;2024-02-16T06:02:30;10;8;
77365;PMS5003;66430;50.182;11.704;2024-02-16T06:04:55;9;9;
77365;PMS5003;66430;50.182;11.704;2024-02-16T06:07:21;9;9;
77365;PMS5003;66430;50.182;11.704;2024-02-16T06:09:46;8;8;
77365;PMS5003;66430;50.182;11.704;2024-02-16T06:12:12;7;6;
77365;PMS5003;66430;50.182;11.704;2024-02-16T06:14:37;7;5;
77365;PMS5003;66430;50.182;11.704;2024-02-16T06:17:03;8;7;
77365;PMS5003;66430;50.182;11.704;2024-02-16T06:19:28;8;7;
77365;PMS5003;66430;50.182;11.704;2024-02-16T06:21:54;10;8;
77365;PMS5003;66430;50.182;11.704;2024-02-16T06:24:19;9;9;
77365;PMS5003;66430;50.182;11.704;2024-02-16T06:26:45;10;9;
77365;PMS5003;66430;50.182;11.704;2024-02-16T06:29:10;10;10;
77365;PMS5003;66430;50.182;11.704;2024-02-16T06:31:35;8;6;
77365;PMS5003;66430;50.182;11.704;2024-02-16T06:34:01;10;10;
77365;PMS5003;66430;50.182;11.704;2024-02-16T06:36:26;10;10;
77365;PMS5003;66430;50.182;11.704;2024-02-16T06:38:52;11;9;
77365;PMS5003;66430;50.182;11.704;2024-02-16T06:41:17;11;9;
77365;PMS5003;66430;50.182;11.704;2024-02-16T06:43:42;11;11;
77365;PMS5003;66430;50.182;11.704;2024-02-16T06:46:08;9;9;
77365;PMS5003;66430;50.182;11.704;2024-02-16T06:48:33;10;10;
77365;PMS5003;66430;50.182;11.704;2024-02-16T06:50:59;10;10;
77365;PMS5003;66430;50.182;11.704;2024-02-16T06:53:24;12;9;
77365;PMS5003;66430;50.182;11.704;2024-02-16T06:55:50;12;9;
77365;PMS5003;66430;50.182;11.704;2024-02-16T06:58:15;8;8;
77365;PMS5003;66430;50.182;11.704;2024-02-16T07:00:41;9;7;
77365;PMS5003;66430;50.182;11.704;2024-02-16T07:03:06;8;8;
77365;PMS5003;66430;50.182;11.704;2024-02-16T07:05:31;7;6;
77365;PMS5003;66430;50.182;11.704;2024-02-16T07:07:57;9;7;
77365;PMS5003;66430;50.182;11.704;2024-02-16T07:10:22;10;6;
77365;PMS5003;66430;50.182;11.704;2024-02-16T07:12:49;6;6;
77365;PMS5003;66430;50.182;11.704;2024-02-16T07:15:13;9;8;
77365;PMS5003;66430;50.182;11.704;2024-02-16T07:17:38;10;9;
77365;PMS5003;66430;50.182;11.704;2024-02-16T07:20:04;5;5;
77365;PMS5003;66430;50.182;11.704;2024-02-16T07:22:30;7;6;
77365;PMS5003;66430;50.182;11.704;2024-02-16T07:24:55;7;7;
77365;PMS5003;66430;50.182;11.704;2024-02-16T07:27:20;6;6;
77365;PMS5003;66430;50.182;11.704;2024-02-16T07:29:46;9;7;
77365;PMS5003;66430;50.182;11.704;2024-02-16T07:32:11;8;7;
77365;PMS5003;66430;50.182;11.704;2024-02-16T07:34:37;8;7;
77365;PMS5003;66430;50.182;11.704;2024-02-16T07:37:02;9;9;
77365;PMS5003;66430;50.182;11.704;2024-02-16T07:39:27;8;8;
77365;PMS5003;66430;50.182;11.704;2024-02-16T07:41:53;9;8;
77365;PMS5003;66430;50.182;11.704;2024-02-16T07:44:18;8;8;
77365;PMS5003;66430;50.182;11.704;2024-02-16T07:46:44;6;6;
77365;PMS5003;66430;50.182;11.704;2024-02-16T07:49:10;6;6;
77365;PMS5003;66430;50.182;11.704;2024-02-16T07:51:36;9;7;
77365;PMS5003;66430;50.182;11.704;2024-02-16T07:54:00;6;5;
77365;PMS5003;66430;50.182;11.704;2024-02-16T07:56:26;9;9;
77365;PMS5003;66430;50.182;11.704;2024-02-16T07:58:51;6;6;
77365;PMS5003;66430;50.182;11.704;2024-02-16T08:01:16;5;5;
77365;PMS5003;66430;50.182;11.704;2024-02-16T08:03:42;8;7;
77365;PMS5003;66430;50.182;11.704;2024-02-16T08:06:07;6;6;
77365;PMS5003;66430;50.182;11.704;2024-02-16T08:08:32;8;8;
77365;PMS5003;66430;50.182;11.704;2024-02-16T08:10:58;7;6;
77365;PMS5003;66430;50.182;11.704;2024-02-16T08:13:25;10;8;
77365;PMS5003;66430;50.182;11.704;2024-02-16T08:15:49;8;8;
77365;PMS5003;66430;50.182;11.704;2024-02-16T08:18:14;7;7;
77365;PMS5003;66430;50.182;11.704;2024-02-16T08:20:40;7;7;
77365;PMS5003;66430;50.182;11.704;2024-02-16T08:23:05;6;6;
77365;PMS5003;66430;50.182;11.704;2024-02-16T08:25:31;8;8;
77365;PMS5003;66430;50.182;11.704;2024-02-16T08:27:56;6;6;
77365;PMS5003;66430;50.182;11.704;2024-02-16T08:30:22;5;5;
77365;PMS5003;66430;50.182;11.704;2024-02-16T08:32:47;6;6;
77365;PMS5003;66430;50.182;11.704;2024-02-16T08:35:13;7;6;
77365;PMS5003;66430;50.182;11.704;2024-02-16T08:37:38;7;6;
77365;PMS5003;66430;50.182;11.704;2024-02-16T08:40:04;10;7;
77365;PMS5003;66430;50.182;11.704;2024-02-16T08:42:29;5;5;
77365;PMS5003;66430;50.182;11.704;2024-02-16T08:44:54;8;6;
77365;PMS5003;66430;50.182;11.704;2024-02-16T08:47:20;5;5;
77365;PMS5003;66430;50.182;11.704;2024-02-16T08:49:46;6;6;
77365;PMS5003;66430;50.182;11.704;2024-02-16T08:52:11;5;5;
77365;PMS5003;66430;50.182;11.704;2024-02-16T08:54:36;6;6;
77365;PMS5003;66430;50.182;11.704;2024-02-16T08:57:01;5;5;
77365;PMS5003;66430;50.182;11.704;2024-02-16T08:59:27;8;8;
77365;PMS5003;66430;50.182;11.704;2024-02-16T09:01:52;8;7;
77365;PMS5003;66430;50.182;11.704;2024-02-16T09:04:18;6;5;
77365;PMS5003;66430;50.182;11.704;2024-02-16T09:06:43;5;5;
77365;PMS5003;66430;50.182;11.704;2024-02-16T09:09:08;5;5;
77365;PMS5003;66430;50.182;11.704;2024-02-16T09:11:34;7;6;
77365;PMS5003;66430;50.182;11.704;2024-02-16T09:13:59;6;6;
77365;PMS5003;66430;50.182;11.704;2024-02-16T09:16:30;6;6;
77365;PMS5003;66430;50.182;11.704;2024-02-16T09:18:55;5;5;
77365;PMS5003;66430;50.182;11.704;2024-02-16T09:21:16;5;5;
77365;PMS5003;66430;50.182;11.704;2024-02-16T09:23:41;4;4;
77365;PMS5003;66430;50.182;11.704;2024-02-16T09:26:06;8;8;
77365;PMS5003;66430;50.182;11.704;2024-02-16T09:28:31;8;7;
77365;PMS5003;66430;50.182;11.704;2024-02-16T09:30:58;6;6;
77365;PMS5003;66430;50.182;11.704;2024-02-16T09:33:22;5;5;
77365;PMS5003;66430;50.182;11.704;2024-02-16T09:35:48;4;4;
77365;PMS5003;66430;50.182;11.704;2024-02-16T09:38:13;4;4;
77365;PMS5003;66430;50.182;11.704;2024-02-16T09:40:39;5;5;
77365;PMS5003;66430;50.182;11.704;2024-02-16T09:43:04;7;7;
77365;PMS5003;66430;50.182;11.704;2024-02-16T09:45:30;4;4;
77365;PMS5003;66430;50.182;11.704;2024-02-16T09:47:55;6;6;
77365;PMS5003;66430;50.182;11.704;2024-02-16T09:50:21;5;5;
77365;PMS5003;66430;50.182;11.704;2024-02-16T09:52:46;6;5;
77365;PMS5003;66430;50.182;11.704;2024-02-16T09:55:12;4;4;
77365;PMS5003;66430;50.182;11.704;2024-02-16T09:57:36;8;5;
77365;PMS5003;66430;50.182;11.704;2024-02-16T10:00:02;5;5;
77365;PMS5003;66430;50.182;11.704;2024-02-16T10:02:27;6;6;
77365;PMS5003;66430;50.182;11.704;2024-02-16T10:04:53;6;6;
77365;PMS5003;66430;50.182;11.704;2024-02-16T10:07:18;7;7;
77365;PMS5003;66430;50.182;11.704;2024-02-16T10:09:45;10;8;
77365;PMS5003;66430;50.182;11.704;2024-02-16T10:12:09;4;4;
77365;PMS5003;66430;50.182;11.704;2024-02-16T10:14:34;4;4;
77365;PMS5003;66430;50.182;11.704;2024-02-16T10:17:00;6;5;
77365;PMS5003;66430;50.182;11.704;2024-02-16T10:19:25;8;7;
77365;PMS5003;66430;50.182;11.704;2024-02-16T10:21:51;5;5;
77365;PMS5003;66430;50.182;11.704;2024-02-16T10:24:20;7;7;
77365;PMS5003;66430;50.182;11.704;2024-02-16T10:26:41;4;4;
77365;PMS5003;66430;50.182;11.704;2024-02-16T10:29:08;5;5;
77365;PMS5003;66430;50.182;11.704;2024-02-16T10:31:32;5;5;
77365;PMS5003;66430;50.182;11.704;2024-02-16T10:33:58;6;6;
77365;PMS5003;66430;50.182;11.704;2024-02-16T10:36:24;7;7;
77365;PMS5003;66430;50.182;11.704;2024-02-16T10:38:48;6;6;
77365;PMS5003;66430;50.182;11.704;2024-02-16T10:41:14;6;6;
77365;PMS5003;66430;50.182;11.704;2024-02-16T10:43:39;7;5;
77365;PMS5003;66430;50.182;11.704;2024-02-16T10:46:05;5;4;
77365;PMS5003;66430;50.182;11.704;2024-02-16T10:48:32;5;5;
77365;PMS5003;66430;50.182;11.704;2024-02-16T10:50:56;4;4;
77365;PMS5003;66430;50.182;11.704;2024-02-16T10:53:22;7;6;
77365;PMS5003;66430;50.182;11.704;2024-02-16T10:55:46;5;5;
77365;PMS5003;66430;50.182;11.704;2024-02-16T10:58:12;6;5;
77365;PMS5003;66430;50.182;11.704;2024-02-16T11:03:03;7;7;
77365;PMS5003;66430;50.182;11.704;2024-02-16T11:05:33;5;5;
77365;PMS5003;66430;50.182;11.704;2024-02-16T11:10:19;9;7;
77365;PMS5003;66430;50.182;11.704;2024-02-16T11:12:44;9;7;
77365;PMS5003;66430;50.182;11.704;2024-02-16T11:15:10;6;6;
77365;PMS5003;66430;50.182;11.704;2024-02-16T11:17:35;7;7;
77365;PMS5003;66430;50.182;11.704;2024-02-16T11:20:00;9;7;
77365;PMS5003;66430;50.182;11.704;2024-02-16T11:22:26;7;7;
77365;PMS5003;66430;50.182;11.704;2024-02-16T11:24:52;8;8;
77365;PMS5003;66430;50.182;11.704;2024-02-16T11:27:16;13;13;
77365;PMS5003;66430;50.182;11.704;2024-02-16T11:29:41;9;9;
77365;PMS5003;66430;50.182;11.704;2024-02-16T11:32:07;8;8;
77365;PMS5003;66430;50.182;11.704;2024-02-16T11:34:33;9;9;
77365;PMS5003;66430;50.182;11.704;2024-02-16T11:36:58;7;7;
77365;PMS5003;66430;50.182;11.704;2024-02-16T11:39:23;9;9;
77365;PMS5003;66430;50.182;11.704;2024-02-16T11:41:48;9;9;
77365;PMS5003;66430;50.182;11.704;2024-02-16T11:44:14;9;9;
77365;PMS5003;66430;50.182;11.704;2024-02-16T11:46:39;8;8;
77365;PMS5003;66430;50.182;11.704;2024-02-16T11:49:05;8;8;
77365;PMS5003;66430;50.182;11.704;2024-02-16T11:51:30;8;8;
77365;PMS5003;66430;50.182;11.704;2024-02-16T11:53:56;11;10;
77365;PMS5003;66430;50.182;11.704;2024-02-16T11:56:26;12;10;
77365;PMS5003;66430;50.182;11.704;2024-02-16T11:58:51;10;9;
77365;PMS5003;66430;50.182;11.704;2024-02-16T12:01:12;13;10;
77365;PMS5003;66430;50.182;11.704;2024-02-16T12:03:37;10;10;
77365;PMS5003;66430;50.182;11.704;2024-02-16T12:06:02;10;9;
77365;PMS5003;66430;50.182;11.704;2024-02-16T12:08:31;11;9;
77365;PMS5003;66430;50.182;11.704;2024-02-16T12:10:53;10;10;
77365;PMS5003;66430;50.182;11.704;2024-02-16T12:13:19;9;9;
77365;PMS5003;66430;50.182;11.704;2024-02-16T12:15:45;12;11;
77365;PMS5003;66430;50.182;11.704;2024-02-16T12:18:09;12;10;
77365;PMS5003;66430;50.182;11.704;2024-02-16T12:20:34;12;11;
77365;PMS5003;66430;50.182;11.704;2024-02-16T12:23:00;11;10;
77365;PMS5003;66430;50.182;11.704;2024-02-16T12:25:25;10;10;
77365;PMS5003;66430;50.182;11.704;2024-02-16T12:27:50;10;10;
77365;PMS5003;66430;50.182;11.704;2024-02-16T12:30:21;11;11;
77365;PMS5003;66430;50.182;11.704;2024-02-16T12:32:41;9;9;
77365;PMS5003;66430;50.182;11.704;2024-02-16T12:35:07;14;11;
77365;PMS5003;66430;50.182;11.704;2024-02-16T12:37:32;11;11;
77365;PMS5003;66430;50.182;11.704;2024-02-16T12:39:57;11;10;
77365;PMS5003;66430;50.182;11.704;2024-02-16T12:42:22;11;10;
77365;PMS5003;66430;50.182;11.704;2024-02-16T12:44:48;9;9;
77365;PMS5003;66430;50.182;11.704;2024-02-16T12:47:13;10;9;
77365;PMS5003;66430;50.182;11.704;2024-02-16T12:49:39;12;11;
77365;PMS5003;66430;50.182;11.704;2024-02-16T12:52:05;13;13;
77365;PMS5003;66430;50.182;11.704;2024-02-16T12:54:29;12;11;
77365;PMS5003;66430;50.182;11.704;2024-02-16T12:56:55;16;14;
77365;PMS5003;66430;50.182;11.704;2024-02-16T12:59:20;9;9;
77365;PMS5003;66430;50.182;11.704;2024-02-16T13:01:46;11;11;
77365;PMS5003;66430;50.182;11.704;2024-02-16T13:04:10;11;10;
77365;PMS5003;66430;50.182;11.704;2024-02-16T13:06:36;10;8;
77365;PMS5003;66430;50.182;11.704;2024-02-16T13:09:01;14;10;
77365;PMS5003;66430;50.182;11.704;2024-02-16T13:11:27;10;9;
77365;PMS5003;66430;50.182;11.704;2024-02-16T13:13:52;9;9;
77365;PMS5003;66430;50.182;11.704;2024-02-16T13:16:17;9;9;
77365;PMS5003;66430;50.182;11.704;2024-02-16T13:18:43;13;13;
77365;PMS5003;66430;50.182;11.704;2024-02-16T13:21:08;10;10;
77365;PMS5003;66430;50.182;11.704;2024-02-16T13:23:33;9;9;
77365;PMS5003;66430;50.182;11.704;2024-02-16T13:25:59;8;8;
77365;PMS5003;66430;50.182;11.704;2024-02-16T13:28:24;9;9;
77365;PMS5003;66430;50.182;11.704;2024-02-16T13:30:50;11;11;
77365;PMS5003;66430;50.182;11.704;2024-02-16T13:33:15;12;12;
77365;PMS5003;66430;50.182;11.704;2024-02-16T13:35:40;10;10;
77365;PMS5003;66430;50.182;11.704;2024-02-16T13:38:05;12;12;
77365;PMS5003;66430;50.182;11.704;2024-02-16T13:40:31;10;10;
77365;PMS5003;66430;50.182;11.704;2024-02-16T13:42:56;14;14;
77365;PMS5003;66430;50.182;11.704;2024-02-16T13:45:22;14;13;
77365;PMS5003;66430;50.182;11.704;2024-02-16T13:47:47;10;10;
77365;PMS5003;66430;50.182;11.704;2024-02-16T13:50:12;11;10;
77365;PMS5003;66430;50.182;11.704;2024-02-16T13:52:43;10;9;
77365;PMS5003;66430;50.182;11.704;2024-02-16T13:55:03;11;10;
77365;PMS5003;66430;50.182;11.704;2024-02-16T13:57:29;10;10;
77365;PMS5003;66430;50.182;11.704;2024-02-16T13:59:53;10;10;
77365;PMS5003;66430;50.182;11.704;2024-02-16T14:02:19;9;9;
77365;PMS5003;66430;50.182;11.704;2024-02-16T14:04:45;10;10;
77365;PMS5003;66430;50.182;11.704;2024-02-16T14:07:10;10;10;
77365;PMS5003;66430;50.182;11.704;2024-02-16T14:09:35;11;11;
77365;PMS5003;66430;50.182;11.704;2024-02-16T14:12:01;13;9;
77365;PMS5003;66430;50.182;11.704;2024-02-16T14:14:27;10;9;
77365;PMS5003;66430;50.182;11.704;2024-02-16T14:16:52;9;9;
77365;PMS5003;66430;50.182;11.704;2024-02-16T14:19:17;17;14;
77365;PMS5003;66430;50.182;11.704;2024-02-16T14:21:43;10;9;
77365;PMS5003;66430;50.182;11.704;2024-02-16T14:24:08;13;13;
77365;PMS5003;66430;50.182;11.704;2024-02-16T14:26:33;13;10;
77365;PMS5003;66430;50.182;11.704;2024-02-16T14:28:59;11;11;
77365;PMS5003;66430;50.182;11.704;2024-02-16T14:31:23;10;10;
77365;PMS5003;66430;50.182;11.704;2024-02-16T14:33:48;12;12;
77365;PMS5003;66430;50.182;11.704;2024-02-16T14:36:15;11;11;
77365;PMS5003;66430;50.182;11.704;2024-02-16T14:38:39;11;11;
77365;PMS5003;66430;50.182;11.704;2024-02-16T14:41:05;13;11;
77365;PMS5003;66430;50.182;11.704;2024-02-16T14:43:30;10;10;
77365;PMS5003;66430;50.182;11.704;2024-02-16T14:45:56;14;11;
77365;PMS5003;66430;50.182;11.704;2024-02-16T14:48:21;10;10;
77365;PMS5003;66430;50.182;11.704;2024-02-16T14:50:46;11;11;
77365;PMS5003;66430;50.182;11.704;2024-02-16T14:53:11;9;8;
77365;PMS5003;66430;50.182;11.704;2024-02-16T14:55:37;10;10;
77365;PMS5003;66430;50.182;11.704;2024-02-16T14:58:02;11;8;
77365;PMS5003;66430;50.182;11.704;2024-02-16T15:00:28;10;10;
77365;PMS5003;66430;50.182;11.704;2024-02-16T15:02:53;12;11;
77365;PMS5003;66430;50.182;11.704;2024-02-16T15:05:18;13;10;
77365;PMS5003;66430;50.182;11.704;2024-02-16T15:07:44;9;8;
77365;PMS5003;66430;50.182;11.704;2024-02-16T15:10:09;11;11;
77365;PMS5003;66430;50.182;11.704;2024-02-16T15:12:34;10;9;
77365;PMS5003;66430;50.182;11.704;2024-02-16T15:15:00;10;10;
77365;PMS5003;66430;50.182;11.704;2024-02-16T15:17:26;10;10;
77365;PMS5003;66430;50.182;11.704;2024-02-16T15:19:51;12;11;
77365;PMS5003;66430;50.182;11.704;2024-02-16T15:22:16;12;10;
77365;PMS5003;66430;50.182;11.704;2024-02-16T15:24:42;9;8;
77365;PMS5003;66430;50.182;11.704;2024-02-16T15:27:07;10;10;
77365;PMS5003;66430;50.182;11.704;2024-02-16T15:29:32;9;7;
77365;PMS5003;66430;50.182;11.704;2024-02-16T15:31:57;10;10;
77365;PMS5003;66430;50.182;11.704;2024-02-16T15:34:23;10;9;
77365;PMS5003;66430;50.182;11.704;2024-02-16T15:36:48;15;14;
77365;PMS5003;66430;50.182;11.704;2024-02-16T15:39:14;10;10;
77365;PMS5003;66430;50.182;11.704;2024-02-16T15:41:39;7;7;
77365;PMS5003;66430;50.182;11.704;2024-02-16T15:44:05;9;9;
77365;PMS5003;66430;50.182;11.704;2024-02-16T15:46:31;12;12;
77365;PMS5003;66430;50.182;11.704;2024-02-16T15:48:56;8;7;
77365;PMS5003;66430;50.182;11.704;2024-02-16T15:51:21;11;11;
77365;PMS5003;66430;50.182;11.704;2024-02-16T15:53:46;8;8;
77365;PMS5003;66430;50.182;11.704;2024-02-16T15:56:12;9;9;
77365;PMS5003;66430;50.182;11.704;2024-02-16T15:58:37;12;11;
77365;PMS5003;66430;50.182;11.704;2024-02-16T16:01:02;10;8;
77365;PMS5003;66430;50.182;11.704;2024-02-16T16:03:28;10;10;
77365;PMS5003;66430;50.182;11.704;2024-02-16T16:05:53;6;6;
77365;PMS5003;66430;50.182;11.704;2024-02-16T16:08:19;11;10;
77365;PMS5003;66430;50.182;11.704;2024-02-16T16:10:44;9;9;
77365;PMS5003;66430;50.182;11.704;2024-02-16T16:13:09;13;10;
77365;PMS5003;66430;50.182;11.704;2024-02-16T16:15:35;25;22;
77365;PMS5003;66430;50.182;11.704;2024-02-16T16:18:01;15;14;
77365;PMS5003;66430;50.182;11.704;2024-02-16T16:20:26;13;11;